sensor_id;sensor_type;location;lat;lon;timestamp;P1;durP1;ratioP1;P2;durP2;ratioP2
9675;SDS011;4876;42.656;23.292;2024-01-06T00:01:36;19.52;;;7.72;;
9675;SDS011;4876;42.656;23.292;2024-01-06T00:04:01;20.77;;;8.13;;
9675;SDS011;4876;42.656;23.292;2024-01-06T00:06:27;14.90;;;6.90;;
9675;SDS011;4876;42.656;23.292;2024-01-06T00:08:52;18.15;;;7.60;;
9675;SDS011;4876;42.656;23.292;2024-01-06T00:11:20;21.02;;;8.02;;
9675;SDS011;4876;42.656;23.292;2024-01-06T00:13:46;16.83;;;8.02;;
9675;SDS011;4876;42.656;23.292;2024-01-06T00:16:12;14.55;;;8.23;;
9675;SDS011;4876;42.656;23.292;2024-01-06T00:18:38;18.40;;;6.95;;
9675;SDS011;4876;42.656;23.292;2024-01-06T00:21:04;19.77;;;7.78;;
9675;SDS011;4876;42.656;23.292;2024-01-06T00:23:30;18.75;;;7.28;;
9675;SDS011;4876;42.656;23.292;2024-01-06T00:25:56;15.18;;;7.32;;
9675;SDS011;4876;42.656;23.292;2024-01-06T00:28:21;17.83;;;7.07;;
9675;SDS011;4876;42.656;23.292;2024-01-06T00:30:47;14.10;;;7.35;;
9675;SDS011;4876;42.656;23.292;2024-01-06T00:33:12;17.00;;;6.47;;
9675;SDS011;4876;42.656;23.292;2024-01-06T00:35:38;11.85;;;6.72;;
9675;SDS011;4876;42.656;23.292;2024-01-06T00:38:03;13.73;;;6.50;;
9675;SDS011;4876;42.656;23.292;2024-01-06T00:40:29;15.77;;;7.53;;
9675;SDS011;4876;42.656;23.292;2024-01-06T00:42:54;17.25;;;7.57;;
9675;SDS011;4876;42.656;23.292;2024-01-06T00:45:20;22.60;;;8.55;;
9675;SDS011;4876;42.656;23.292;2024-01-06T00:47:46;22.77;;;9.23;;
9675;SDS011;4876;42.656;23.292;2024-01-06T00:50:11;19.85;;;9.95;;
9675;SDS011;4876;42.656;23.292;2024-01-06T00:52:38;19.50;;;9.48;;
9675;SDS011;4876;42.656;23.292;2024-01-06T00:55:03;19.35;;;8.88;;
9675;SDS011;4876;42.656;23.292;2024-01-06T00:57:29;22.80;;;9.05;;
9675;SDS011;4876;42.656;23.292;2024-01-06T00:59:54;18.98;;;8.05;;
9675;SDS011;4876;42.656;23.292;2024-01-06T01:02:21;16.52;;;7.13;;
9675;SDS011;4876;42.656;23.292;2024-01-06T01:04:47;17.27;;;8.55;;
9675;SDS011;4876;42.656;23.292;2024-01-06T01:07:12;15.63;;;6.50;;
9675;SDS011;4876;42.656;23.292;2024-01-06T01:09:38;14.35;;;8.05;;
9675;SDS011;4876;42.656;23.292;2024-01-06T01:12:03;14.93;;;7.18;;
9675;SDS011;4876;42.656;23.292;2024-01-06T01:14:29;16.08;;;6.30;;
9675;SDS011;4876;42.656;23.292;2024-01-06T01:16:54;17.60;;;7.32;;
9675;SDS011;4876;42.656;23.292;2024-01-06T01:19:20;20.65;;;9.52;;
9675;SDS011;4876;42.656;23.292;2024-01-06T01:21:45;20.20;;;7.30;;
9675;SDS011;4876;42.656;23.292;2024-01-06T01:24:11;15.60;;;6.80;;
9675;SDS011;4876;42.656;23.292;2024-01-06T01:26:36;16.17;;;6.70;;
9675;SDS011;4876;42.656;23.292;2024-01-06T01:29:02;16.05;;;6.97;;
9675;SDS011;4876;42.656;23.292;2024-01-06T01:31:27;18.30;;;6.55;;
9675;SDS011;4876;42.656;23.292;2024-01-06T01:33:53;12.25;;;5.45;;
9675;SDS011;4876;42.656;23.292;2024-01-06T01:36:18;14.98;;;6.95;;
9675;SDS011;4876;42.656;23.292;2024-01-06T01:38:44;14.75;;;6.35;;
9675;SDS011;4876;42.656;23.292;2024-01-06T01:41:09;14.18;;;6.25;;
9675;SDS011;4876;42.656;23.292;2024-01-06T01:43:35;16.10;;;7.70;;
9675;SDS011;4876;42.656;23.292;2024-01-06T01:46:00;14.60;;;6.63;;
9675;SDS011;4876;42.656;23.292;2024-01-06T01:48:26;13.77;;;5.88;;
9675;SDS011;4876;42.656;23.292;2024-01-06T01:50:53;15.45;;;6.15;;
9675;SDS011;4876;42.656;23.292;2024-01-06T01:53:18;15.45;;;6.45;;
9675;SDS011;4876;42.656;23.292;2024-01-06T01:55:45;14.10;;;6.45;;
9675;SDS011;4876;42.656;23.292;2024-01-06T01:58:12;16.77;;;6.47;;
9675;SDS011;4876;42.656;23.292;2024-01-06T02:00:39;13.13;;;6.57;;
9675;SDS011;4876;42.656;23.292;2024-01-06T02:03:05;14.85;;;6.53;;
9675;SDS011;4876;42.656;23.292;2024-01-06T02:05:31;11.88;;;5.88;;
9675;SDS011;4876;42.656;23.292;2024-01-06T02:07:57;12.68;;;6.60;;
9675;SDS011;4876;42.656;23.292;2024-01-06T02:10:22;16.17;;;7.95;;
9675;SDS011;4876;42.656;23.292;2024-01-06T02:12:48;20.17;;;8.38;;
9675;SDS011;4876;42.656;23.292;2024-01-06T02:15:17;21.50;;;9.15;;
9675;SDS011;4876;42.656;23.292;2024-01-06T02:17:51;19.25;;;7.75;;
9675;SDS011;4876;42.656;23.292;2024-01-06T02:20:27;13.40;;;6.78;;
9675;SDS011;4876;42.656;23.292;2024-01-06T02:22:57;16.80;;;7.70;;
9675;SDS011;4876;42.656;23.292;2024-01-06T02:25:25;19.23;;;6.72;;
9675;SDS011;4876;42.656;23.292;2024-01-06T02:27:51;16.45;;;9.02;;
9675;SDS011;4876;42.656;23.292;2024-01-06T02:30:16;19.85;;;8.60;;
9675;SDS011;4876;42.656;23.292;2024-01-06T02:32:42;18.30;;;8.80;;
9675;SDS011;4876;42.656;23.292;2024-01-06T02:35:08;14.60;;;6.80;;
9675;SDS011;4876;42.656;23.292;2024-01-06T02:37:33;13.98;;;6.75;;
9675;SDS011;4876;42.656;23.292;2024-01-06T02:39:59;17.02;;;7.20;;
9675;SDS011;4876;42.656;23.292;2024-01-06T02:42:24;12.90;;;6.22;;
9675;SDS011;4876;42.656;23.292;2024-01-06T02:44:50;11.10;;;5.18;;
9675;SDS011;4876;42.656;23.292;2024-01-06T02:47:16;10.77;;;5.28;;
9675;SDS011;4876;42.656;23.292;2024-01-06T02:49:44;12.82;;;5.70;;
9675;SDS011;4876;42.656;23.292;2024-01-06T02:52:10;17.85;;;6.47;;
9675;SDS011;4876;42.656;23.292;2024-01-06T02:54:35;14.05;;;6.72;;
9675;SDS011;4876;42.656;23.292;2024-01-06T02:57:01;12.25;;;6.25;;
9675;SDS011;4876;42.656;23.292;2024-01-06T02:59:26;17.73;;;6.75;;
9675;SDS011;4876;42.656;23.292;2024-01-06T03:01:52;15.05;;;6.78;;
9675;SDS011;4876;42.656;23.292;2024-01-06T03:04:18;19.92;;;8.68;;
9675;SDS011;4876;42.656;23.292;2024-01-06T03:06:43;17.63;;;7.07;;
9675;SDS011;4876;42.656;23.292;2024-01-06T03:09:11;24.15;;;10.45;;
9675;SDS011;4876;42.656;23.292;2024-01-06T03:11:37;18.60;;;8.45;;
9675;SDS011;4876;42.656;23.292;2024-01-06T03:14:02;21.80;;;8.93;;
9675;SDS011;4876;42.656;23.292;2024-01-06T03:16:28;19.10;;;7.40;;
9675;SDS011;4876;42.656;23.292;2024-01-06T03:18:53;21.02;;;8.23;;
9675;SDS011;4876;42.656;23.292;2024-01-06T03:21:19;15.02;;;7.32;;
9675;SDS011;4876;42.656;23.292;2024-01-06T03:23:45;20.77;;;8.80;;
9675;SDS011;4876;42.656;23.292;2024-01-06T03:26:12;18.40;;;8.32;;
9675;SDS011;4876;42.656;23.292;2024-01-06T03:28:37;14.43;;;6.75;;
9675;SDS011;4876;42.656;23.292;2024-01-06T03:31:03;17.40;;;7.75;;
9675;SDS011;4876;42.656;23.292;2024-01-06T03:33:28;17.30;;;7.03;;
9675;SDS011;4876;42.656;23.292;2024-01-06T03:35:54;19.10;;;8.38;;
9675;SDS011;4876;42.656;23.292;2024-01-06T03:38:19;18.05;;;8.35;;
9675;SDS011;4876;42.656;23.292;2024-01-06T03:40:45;16.08;;;7.88;;
9675;SDS011;4876;42.656;23.292;2024-01-06T03:43:10;20.08;;;8.52;;
9675;SDS011;4876;42.656;23.292;2024-01-06T03:45:36;20.17;;;7.97;;
9675;SDS011;4876;42.656;23.292;2024-01-06T03:48:01;16.85;;;7.63;;
9675;SDS011;4876;42.656;23.292;2024-01-06T03:50:27;16.73;;;7.90;;
9675;SDS011;4876;42.656;23.292;2024-01-06T03:52:52;16.58;;;7.47;;
9675;SDS011;4876;42.656;23.292;2024-01-06T03:55:18;13.50;;;6.95;;
9675;SDS011;4876;42.656;23.292;2024-01-06T04:00:12;15.05;;;6.13;;
9675;SDS011;4876;42.656;23.292;2024-01-06T04:02:38;18.75;;;7.65;;
9675;SDS011;4876;42.656;23.292;2024-01-06T04:05:03;13.68;;;7.40;;
9675;SDS011;4876;42.656;23.292;2024-01-06T04:07:30;14.50;;;7.10;;
9675;SDS011;4876;42.656;23.292;2024-01-06T04:10:01;11.82;;;4.65;;
9675;SDS011;4876;42.656;23.292;2024-01-06T04:12:26;14.27;;;6.55;;
9675;SDS011;4876;42.656;23.292;2024-01-06T04:14:52;17.08;;;7.03;;
9675;SDS011;4876;42.656;23.292;2024-01-06T04:17:18;14.43;;;6.50;;
9675;SDS011;4876;42.656;23.292;2024-01-06T04:19:43;13.77;;;6.30;;
9675;SDS011;4876;42.656;23.292;2024-01-06T04:22:09;18.80;;;8.40;;
9675;SDS011;4876;42.656;23.292;2024-01-06T04:24:34;16.50;;;8.05;;
9675;SDS011;4876;42.656;23.292;2024-01-06T04:27:03;15.48;;;6.90;;
9675;SDS011;4876;42.656;23.292;2024-01-06T04:29:29;16.40;;;7.90;;
9675;SDS011;4876;42.656;23.292;2024-01-06T04:31:55;14.80;;;7.45;;
9675;SDS011;4876;42.656;23.292;2024-01-06T04:34:20;18.05;;;7.28;;
9675;SDS011;4876;42.656;23.292;2024-01-06T04:36:46;15.75;;;7.40;;
9675;SDS011;4876;42.656;23.292;2024-01-06T04:39:11;13.57;;;6.32;;
9675;SDS011;4876;42.656;23.292;2024-01-06T04:41:38;17.17;;;6.35;;
9675;SDS011;4876;42.656;23.292;2024-01-06T04:44:05;14.88;;;7.00;;
9675;SDS011;4876;42.656;23.292;2024-01-06T04:46:31;14.32;;;6.25;;
9675;SDS011;4876;42.656;23.292;2024-01-06T04:48:56;16.17;;;6.57;;
9675;SDS011;4876;42.656;23.292;2024-01-06T04:51:22;15.82;;;7.07;;
9675;SDS011;4876;42.656;23.292;2024-01-06T04:53:48;13.40;;;6.72;;
9675;SDS011;4876;42.656;23.292;2024-01-06T04:56:13;12.05;;;6.05;;
9675;SDS011;4876;42.656;23.292;2024-01-06T04:58:39;13.18;;;6.22;;
9675;SDS011;4876;42.656;23.292;2024-01-06T05:01:05;13.07;;;6.15;;
9675;SDS011;4876;42.656;23.292;2024-01-06T05:03:31;14.85;;;6.43;;
9675;SDS011;4876;42.656;23.292;2024-01-06T05:05:56;13.18;;;6.07;;
9675;SDS011;4876;42.656;23.292;2024-01-06T05:08:22;14.25;;;6.80;;
9675;SDS011;4876;42.656;23.292;2024-01-06T05:10:48;11.80;;;6.18;;
9675;SDS011;4876;42.656;23.292;2024-01-06T05:13:14;12.75;;;6.03;;
9675;SDS011;4876;42.656;23.292;2024-01-06T05:15:39;12.77;;;6.05;;
9675;SDS011;4876;42.656;23.292;2024-01-06T05:18:05;10.25;;;5.65;;
9675;SDS011;4876;42.656;23.292;2024-01-06T05:20:30;12.23;;;6.03;;
9675;SDS011;4876;42.656;23.292;2024-01-06T05:22:56;16.25;;;6.00;;
9675;SDS011;4876;42.656;23.292;2024-01-06T05:25:21;14.77;;;5.75;;
9675;SDS011;4876;42.656;23.292;2024-01-06T05:27:47;17.17;;;6.72;;
9675;SDS011;4876;42.656;23.292;2024-01-06T05:30:12;13.55;;;5.38;;
9675;SDS011;4876;42.656;23.292;2024-01-06T05:32:38;12.10;;;5.88;;
9675;SDS011;4876;42.656;23.292;2024-01-06T05:35:04;10.98;;;5.28;;
9675;SDS011;4876;42.656;23.292;2024-01-06T05:37:29;16.88;;;6.88;;
9675;SDS011;4876;42.656;23.292;2024-01-06T05:39:56;12.25;;;6.15;;
9675;SDS011;4876;42.656;23.292;2024-01-06T05:42:26;15.32;;;6.95;;
9675;SDS011;4876;42.656;23.292;2024-01-06T05:44:52;11.43;;;5.75;;
9675;SDS011;4876;42.656;23.292;2024-01-06T05:47:17;15.43;;;6.38;;
9675;SDS011;4876;42.656;23.292;2024-01-06T05:49:43;13.15;;;5.90;;
9675;SDS011;4876;42.656;23.292;2024-01-06T05:52:11;20.27;;;6.65;;
9675;SDS011;4876;42.656;23.292;2024-01-06T05:54:40;13.43;;;6.75;;
9675;SDS011;4876;42.656;23.292;2024-01-06T05:57:07;13.98;;;6.88;;
9675;SDS011;4876;42.656;23.292;2024-01-06T05:59:33;15.02;;;6.70;;
9675;SDS011;4876;42.656;23.292;2024-01-06T06:01:58;12.30;;;6.72;;
9675;SDS011;4876;42.656;23.292;2024-01-06T06:04:24;14.38;;;6.10;;
9675;SDS011;4876;42.656;23.292;2024-01-06T06:06:49;15.15;;;6.22;;
9675;SDS011;4876;42.656;23.292;2024-01-06T06:09:14;16.95;;;6.72;;
9675;SDS011;4876;42.656;23.292;2024-01-06T06:11:40;12.85;;;5.88;;
9675;SDS011;4876;42.656;23.292;2024-01-06T06:14:06;16.67;;;6.38;;
9675;SDS011;4876;42.656;23.292;2024-01-06T06:16:31;19.90;;;7.10;;
9675;SDS011;4876;42.656;23.292;2024-01-06T06:18:57;18.60;;;6.00;;
9675;SDS011;4876;42.656;23.292;2024-01-06T06:21:23;15.63;;;6.25;;
9675;SDS011;4876;42.656;23.292;2024-01-06T06:23:49;15.52;;;5.88;;
9675;SDS011;4876;42.656;23.292;2024-01-06T06:26:15;11.35;;;6.10;;
9675;SDS011;4876;42.656;23.292;2024-01-06T06:28:41;14.18;;;6.15;;
9675;SDS011;4876;42.656;23.292;2024-01-06T06:31:06;10.77;;;6.25;;
9675;SDS011;4876;42.656;23.292;2024-01-06T06:33:32;13.48;;;6.18;;
9675;SDS011;4876;42.656;23.292;2024-01-06T06:36:00;13.65;;;5.90;;
9675;SDS011;4876;42.656;23.292;2024-01-06T06:38:26;18.30;;;7.13;;
9675;SDS011;4876;42.656;23.292;2024-01-06T06:40:52;12.10;;;6.47;;
9675;SDS011;4876;42.656;23.292;2024-01-06T06:43:18;18.67;;;6.55;;
9675;SDS011;4876;42.656;23.292;2024-01-06T06:45:43;12.40;;;6.45;;
9675;SDS011;4876;42.656;23.292;2024-01-06T06:48:10;17.70;;;6.90;;
9675;SDS011;4876;42.656;23.292;2024-01-06T06:50:35;16.75;;;6.60;;
9675;SDS011;4876;42.656;23.292;2024-01-06T06:53:01;18.90;;;7.25;;
9675;SDS011;4876;42.656;23.292;2024-01-06T06:55:27;13.93;;;7.50;;
9675;SDS011;4876;42.656;23.292;2024-01-06T06:57:53;16.17;;;7.50;;
9675;SDS011;4876;42.656;23.292;2024-01-06T07:00:19;14.85;;;7.50;;
9675;SDS011;4876;42.656;23.292;2024-01-06T07:02:44;18.25;;;7.15;;
9675;SDS011;4876;42.656;23.292;2024-01-06T07:05:10;18.08;;;8.52;;
9675;SDS011;4876;42.656;23.292;2024-01-06T07:07:36;13.55;;;7.43;;
9675;SDS011;4876;42.656;23.292;2024-01-06T07:10:03;17.30;;;7.28;;
9675;SDS011;4876;42.656;23.292;2024-01-06T07:12:30;20.65;;;7.60;;
9675;SDS011;4876;42.656;23.292;2024-01-06T07:14:56;12.75;;;7.15;;
9675;SDS011;4876;42.656;23.292;2024-01-06T07:17:23;15.73;;;7.28;;
9675;SDS011;4876;42.656;23.292;2024-01-06T07:19:49;18.70;;;7.40;;
9675;SDS011;4876;42.656;23.292;2024-01-06T07:22:15;16.05;;;8.18;;
9675;SDS011;4876;42.656;23.292;2024-01-06T07:24:43;18.02;;;7.78;;
9675;SDS011;4876;42.656;23.292;2024-01-06T07:27:09;18.75;;;7.93;;
9675;SDS011;4876;42.656;23.292;2024-01-06T07:29:35;15.35;;;8.20;;
9675;SDS011;4876;42.656;23.292;2024-01-06T07:32:00;17.92;;;7.90;;
9675;SDS011;4876;42.656;23.292;2024-01-06T07:34:26;16.95;;;8.57;;
9675;SDS011;4876;42.656;23.292;2024-01-06T07:36:51;22.60;;;7.97;;
9675;SDS011;4876;42.656;23.292;2024-01-06T07:39:17;15.20;;;8.48;;
9675;SDS011;4876;42.656;23.292;2024-01-06T07:41:42;17.17;;;7.53;;
9675;SDS011;4876;42.656;23.292;2024-01-06T07:44:08;14.60;;;7.22;;
9675;SDS011;4876;42.656;23.292;2024-01-06T07:46:33;19.23;;;7.80;;
9675;SDS011;4876;42.656;23.292;2024-01-06T07:49:00;15.77;;;7.97;;
9675;SDS011;4876;42.656;23.292;2024-01-06T07:51:26;15.38;;;7.90;;
9675;SDS011;4876;42.656;23.292;2024-01-06T07:53:51;16.38;;;8.05;;
9675;SDS011;4876;42.656;23.292;2024-01-06T07:56:17;17.67;;;8.82;;
9675;SDS011;4876;42.656;23.292;2024-01-06T07:58:43;21.00;;;8.35;;
9675;SDS011;4876;42.656;23.292;2024-01-06T08:01:08;19.45;;;8.30;;
9675;SDS011;4876;42.656;23.292;2024-01-06T08:03:34;19.00;;;8.82;;
9675;SDS011;4876;42.656;23.292;2024-01-06T08:05:59;20.55;;;8.52;;
9675;SDS011;4876;42.656;23.292;2024-01-06T08:08:25;14.35;;;7.72;;
9675;SDS011;4876;42.656;23.292;2024-01-06T08:10:51;16.25;;;8.77;;
9675;SDS011;4876;42.656;23.292;2024-01-06T08:13:17;18.98;;;8.70;;
9675;SDS011;4876;42.656;23.292;2024-01-06T08:15:42;20.08;;;9.75;;
9675;SDS011;4876;42.656;23.292;2024-01-06T08:18:08;17.73;;;9.45;;
9675;SDS011;4876;42.656;23.292;2024-01-06T08:20:33;21.40;;;10.18;;
9675;SDS011;4876;42.656;23.292;2024-01-06T08:22:59;18.00;;;9.32;;
9675;SDS011;4876;42.656;23.292;2024-01-06T08:25:24;17.05;;;9.10;;
9675;SDS011;4876;42.656;23.292;2024-01-06T08:27:49;16.77;;;8.27;;
9675;SDS011;4876;42.656;23.292;2024-01-06T08:30:15;20.15;;;8.77;;
9675;SDS011;4876;42.656;23.292;2024-01-06T08:32:40;19.70;;;9.20;;
9675;SDS011;4876;42.656;23.292;2024-01-06T08:35:06;15.73;;;8.65;;
9675;SDS011;4876;42.656;23.292;2024-01-06T08:37:32;16.83;;;8.90;;
9675;SDS011;4876;42.656;23.292;2024-01-06T08:39:57;18.30;;;9.98;;
9675;SDS011;4876;42.656;23.292;2024-01-06T08:42:23;16.80;;;9.45;;
9675;SDS011;4876;42.656;23.292;2024-01-06T08:44:50;16.52;;;9.32;;
9675;SDS011;4876;42.656;23.292;2024-01-06T08:47:16;16.20;;;8.73;;
9675;SDS011;4876;42.656;23.292;2024-01-06T08:49:42;14.70;;;7.40;;
9675;SDS011;4876;42.656;23.292;2024-01-06T08:52:07;17.88;;;8.80;;
9675;SDS011;4876;42.656;23.292;2024-01-06T08:54:33;14.63;;;7.68;;
9675;SDS011;4876;42.656;23.292;2024-01-06T08:56:59;14.43;;;6.78;;
9675;SDS011;4876;42.656;23.292;2024-01-06T08:59:25;16.60;;;7.35;;
9675;SDS011;4876;42.656;23.292;2024-01-06T09:01:50;14.48;;;7.28;;
9675;SDS011;4876;42.656;23.292;2024-01-06T09:04:17;10.93;;;6.63;;
9675;SDS011;4876;42.656;23.292;2024-01-06T09:06:42;17.20;;;7.07;;
9675;SDS011;4876;42.656;23.292;2024-01-06T09:09:08;12.77;;;6.30;;
9675;SDS011;4876;42.656;23.292;2024-01-06T09:11:34;13.02;;;6.50;;
9675;SDS011;4876;42.656;23.292;2024-01-06T09:14:00;18.05;;;7.40;;
9675;SDS011;4876;42.656;23.292;2024-01-06T09:16:26;15.80;;;7.28;;
9675;SDS011;4876;42.656;23.292;2024-01-06T09:18:51;19.50;;;6.90;;
9675;SDS011;4876;42.656;23.292;2024-01-06T09:21:17;16.90;;;7.68;;
9675;SDS011;4876;42.656;23.292;2024-01-06T09:23:43;16.17;;;7.70;;
9675;SDS011;4876;42.656;23.292;2024-01-06T09:26:08;14.05;;;7.38;;
9675;SDS011;4876;42.656;23.292;2024-01-06T09:28:34;14.77;;;6.97;;
9675;SDS011;4876;42.656;23.292;2024-01-06T09:31:00;15.55;;;7.03;;
9675;SDS011;4876;42.656;23.292;2024-01-06T09:33:25;16.50;;;8.02;;
9675;SDS011;4876;42.656;23.292;2024-01-06T09:35:51;12.38;;;6.85;;
9675;SDS011;4876;42.656;23.292;2024-01-06T09:38:16;16.40;;;7.25;;
9675;SDS011;4876;42.656;23.292;2024-01-06T09:40:43;12.18;;;6.43;;
9675;SDS011;4876;42.656;23.292;2024-01-06T09:43:12;14.27;;;7.32;;
9675;SDS011;4876;42.656;23.292;2024-01-06T09:45:38;17.60;;;6.50;;
9675;SDS011;4876;42.656;23.292;2024-01-06T09:48:10;14.55;;;7.20;;
9675;SDS011;4876;42.656;23.292;2024-01-06T09:50:41;10.93;;;6.45;;
9675;SDS011;4876;42.656;23.292;2024-01-06T09:53:10;16.08;;;6.60;;
9675;SDS011;4876;42.656;23.292;2024-01-06T09:55:36;15.82;;;7.22;;
9675;SDS011;4876;42.656;23.292;2024-01-06T09:58:03;14.82;;;6.57;;
9675;SDS011;4876;42.656;23.292;2024-01-06T10:00:30;17.20;;;6.55;;
9675;SDS011;4876;42.656;23.292;2024-01-06T10:02:55;11.20;;;7.38;;
9675;SDS011;4876;42.656;23.292;2024-01-06T10:05:21;14.88;;;6.68;;
9675;SDS011;4876;42.656;23.292;2024-01-06T10:07:47;18.17;;;7.80;;
9675;SDS011;4876;42.656;23.292;2024-01-06T10:10:13;18.40;;;7.47;;
9675;SDS011;4876;42.656;23.292;2024-01-06T10:12:40;16.77;;;7.50;;
9675;SDS011;4876;42.656;23.292;2024-01-06T10:15:07;16.15;;;7.57;;
9675;SDS011;4876;42.656;23.292;2024-01-06T10:17:37;17.92;;;7.22;;
9675;SDS011;4876;42.656;23.292;2024-01-06T10:20:06;16.25;;;6.95;;
9675;SDS011;4876;42.656;23.292;2024-01-06T10:22:34;14.82;;;7.03;;
9675;SDS011;4876;42.656;23.292;2024-01-06T10:25:05;14.13;;;6.68;;
9675;SDS011;4876;42.656;23.292;2024-01-06T10:27:35;13.48;;;7.03;;
9675;SDS011;4876;42.656;23.292;2024-01-06T10:30:01;12.70;;;6.25;;
9675;SDS011;4876;42.656;23.292;2024-01-06T10:32:30;15.25;;;8.23;;
9675;SDS011;4876;42.656;23.292;2024-01-06T10:34:56;13.98;;;7.10;;
9675;SDS011;4876;42.656;23.292;2024-01-06T10:37:23;22.98;;;8.52;;
9675;SDS011;4876;42.656;23.292;2024-01-06T10:40:04;19.83;;;6.97;;
9675;SDS011;4876;42.656;23.292;2024-01-06T10:42:33;22.63;;;11.75;;
9675;SDS011;4876;42.656;23.292;2024-01-06T10:45:01;24.42;;;14.23;;
9675;SDS011;4876;42.656;23.292;2024-01-06T10:47:27;27.25;;;13.77;;
9675;SDS011;4876;42.656;23.292;2024-01-06T10:49:58;31.17;;;13.55;;
9675;SDS011;4876;42.656;23.292;2024-01-06T10:52:25;32.85;;;14.65;;
9675;SDS011;4876;42.656;23.292;2024-01-06T10:54:53;32.88;;;15.98;;
9675;SDS011;4876;42.656;23.292;2024-01-06T10:57:20;32.40;;;16.60;;
9675;SDS011;4876;42.656;23.292;2024-01-06T10:59:46;29.75;;;14.75;;
9675;SDS011;4876;42.656;23.292;2024-01-06T11:02:14;29.00;;;12.32;;
9675;SDS011;4876;42.656;23.292;2024-01-06T11:04:42;22.73;;;11.52;;
9675;SDS011;4876;42.656;23.292;2024-01-06T11:07:15;25.30;;;11.80;;
9675;SDS011;4876;42.656;23.292;2024-01-06T11:09:57;21.65;;;9.77;;
9675;SDS011;4876;42.656;23.292;2024-01-06T11:12:25;25.30;;;11.15;;
9675;SDS011;4876;42.656;23.292;2024-01-06T11:14:51;18.27;;;10.65;;
9675;SDS011;4876;42.656;23.292;2024-01-06T11:20:18;25.38;;;11.95;;
9675;SDS011;4876;42.656;23.292;2024-01-06T11:22:46;24.40;;;12.05;;
9675;SDS011;4876;42.656;23.292;2024-01-06T11:25:19;28.75;;;12.20;;
9675;SDS011;4876;42.656;23.292;2024-01-06T11:27:46;24.55;;;10.32;;
9675;SDS011;4876;42.656;23.292;2024-01-06T11:30:19;17.27;;;8.13;;
9675;SDS011;4876;42.656;23.292;2024-01-06T11:32:45;20.75;;;8.73;;
9675;SDS011;4876;42.656;23.292;2024-01-06T11:35:12;17.65;;;8.45;;
9675;SDS011;4876;42.656;23.292;2024-01-06T11:40:21;20.70;;;9.75;;
9675;SDS011;4876;42.656;23.292;2024-01-06T11:42:56;19.80;;;8.80;;
9675;SDS011;4876;42.656;23.292;2024-01-06T11:45:28;16.38;;;7.65;;
9675;SDS011;4876;42.656;23.292;2024-01-06T11:47:57;17.42;;;6.68;;
9675;SDS011;4876;42.656;23.292;2024-01-06T11:50:28;14.35;;;7.25;;
9675;SDS011;4876;42.656;23.292;2024-01-06T11:52:55;18.88;;;9.15;;
9675;SDS011;4876;42.656;23.292;2024-01-06T11:55:21;18.75;;;8.65;;
9675;SDS011;4876;42.656;23.292;2024-01-06T11:57:46;20.52;;;9.40;;
9675;SDS011;4876;42.656;23.292;2024-01-06T12:00:13;15.60;;;8.63;;
9675;SDS011;4876;42.656;23.292;2024-01-06T12:02:39;10.85;;;5.47;;
9675;SDS011;4876;42.656;23.292;2024-01-06T12:05:05;15.23;;;6.43;;
9675;SDS011;4876;42.656;23.292;2024-01-06T12:07:37;10.75;;;5.25;;
9675;SDS011;4876;42.656;23.292;2024-01-06T12:10:03;12.77;;;7.50;;
9675;SDS011;4876;42.656;23.292;2024-01-06T12:12:29;15.02;;;6.63;;
9675;SDS011;4876;42.656;23.292;2024-01-06T12:14:54;13.82;;;7.53;;
9675;SDS011;4876;42.656;23.292;2024-01-06T12:17:20;18.23;;;6.45;;
9675;SDS011;4876;42.656;23.292;2024-01-06T12:19:47;13.20;;;6.03;;
9675;SDS011;4876;42.656;23.292;2024-01-06T12:22:13;16.13;;;6.38;;
9675;SDS011;4876;42.656;23.292;2024-01-06T12:24:40;13.85;;;6.18;;
9675;SDS011;4876;42.656;23.292;2024-01-06T12:27:08;15.48;;;7.25;;
9675;SDS011;4876;42.656;23.292;2024-01-06T12:29:37;11.95;;;5.50;;
9675;SDS011;4876;42.656;23.292;2024-01-06T12:32:05;14.70;;;5.95;;
9675;SDS011;4876;42.656;23.292;2024-01-06T12:34:31;9.45;;;5.45;;
9675;SDS011;4876;42.656;23.292;2024-01-06T12:36:57;11.30;;;5.45;;
9675;SDS011;4876;42.656;23.292;2024-01-06T12:39:23;15.18;;;5.30;;
9675;SDS011;4876;42.656;23.292;2024-01-06T12:41:53;10.65;;;5.60;;
9675;SDS011;4876;42.656;23.292;2024-01-06T12:44:19;13.02;;;5.60;;
9675;SDS011;4876;42.656;23.292;2024-01-06T12:46:45;15.25;;;6.43;;
9675;SDS011;4876;42.656;23.292;2024-01-06T12:49:10;15.77;;;6.25;;
9675;SDS011;4876;42.656;23.292;2024-01-06T12:51:36;12.55;;;6.43;;
9675;SDS011;4876;42.656;23.292;2024-01-06T12:54:02;9.77;;;5.30;;
9675;SDS011;4876;42.656;23.292;2024-01-06T12:56:28;11.88;;;5.53;;
9675;SDS011;4876;42.656;23.292;2024-01-06T12:58:54;12.30;;;5.70;;
9675;SDS011;4876;42.656;23.292;2024-01-06T13:01:20;15.05;;;5.90;;
9675;SDS011;4876;42.656;23.292;2024-01-06T13:03:45;15.40;;;5.97;;
9675;SDS011;4876;42.656;23.292;2024-01-06T13:06:11;14.23;;;5.10;;
9675;SDS011;4876;42.656;23.292;2024-01-06T13:08:37;10.65;;;5.72;;
9675;SDS011;4876;42.656;23.292;2024-01-06T13:11:02;8.85;;;4.50;;
9675;SDS011;4876;42.656;23.292;2024-01-06T13:13:28;14.07;;;5.38;;
9675;SDS011;4876;42.656;23.292;2024-01-06T13:15:54;10.55;;;4.70;;
9675;SDS011;4876;42.656;23.292;2024-01-06T13:18:19;11.02;;;4.65;;
9675;SDS011;4876;42.656;23.292;2024-01-06T13:20:45;10.45;;;5.47;;
9675;SDS011;4876;42.656;23.292;2024-01-06T13:23:10;12.93;;;5.22;;
9675;SDS011;4876;42.656;23.292;2024-01-06T13:25:37;15.05;;;5.35;;
9675;SDS011;4876;42.656;23.292;2024-01-06T13:28:06;14.30;;;6.30;;
9675;SDS011;4876;42.656;23.292;2024-01-06T13:30:32;12.52;;;5.80;;
9675;SDS011;4876;42.656;23.292;2024-01-06T13:32:58;13.85;;;6.72;;
9675;SDS011;4876;42.656;23.292;2024-01-06T13:35:24;18.30;;;7.95;;
9675;SDS011;4876;42.656;23.292;2024-01-06T13:37:50;21.75;;;7.47;;
9675;SDS011;4876;42.656;23.292;2024-01-06T13:40:17;19.73;;;7.25;;
9675;SDS011;4876;42.656;23.292;2024-01-06T13:42:46;15.95;;;7.50;;
9675;SDS011;4876;42.656;23.292;2024-01-06T13:45:12;16.33;;;7.25;;
9675;SDS011;4876;42.656;23.292;2024-01-06T13:47:38;18.42;;;8.00;;
9675;SDS011;4876;42.656;23.292;2024-01-06T13:50:07;17.00;;;7.65;;
9675;SDS011;4876;42.656;23.292;2024-01-06T13:52:33;17.48;;;7.55;;
9675;SDS011;4876;42.656;23.292;2024-01-06T13:55:00;13.50;;;6.53;;
9675;SDS011;4876;42.656;23.292;2024-01-06T13:57:25;16.95;;;7.07;;
9675;SDS011;4876;42.656;23.292;2024-01-06T13:59:51;18.38;;;7.10;;
9675;SDS011;4876;42.656;23.292;2024-01-06T14:02:16;14.80;;;7.03;;
9675;SDS011;4876;42.656;23.292;2024-01-06T14:04:42;14.35;;;6.57;;
9675;SDS011;4876;42.656;23.292;2024-01-06T14:07:08;18.23;;;7.72;;
9675;SDS011;4876;42.656;23.292;2024-01-06T14:09:35;21.25;;;8.20;;
9675;SDS011;4876;42.656;23.292;2024-01-06T14:12:01;20.63;;;10.10;;
9675;SDS011;4876;42.656;23.292;2024-01-06T14:14:26;32.80;;;11.57;;
9675;SDS011;4876;42.656;23.292;2024-01-06T14:16:52;25.25;;;10.60;;
9675;SDS011;4876;42.656;23.292;2024-01-06T14:19:18;38.83;;;14.80;;
9675;SDS011;4876;42.656;23.292;2024-01-06T14:21:43;30.40;;;13.52;;
9675;SDS011;4876;42.656;23.292;2024-01-06T14:24:09;30.63;;;13.30;;
9675;SDS011;4876;42.656;23.292;2024-01-06T14:26:34;32.05;;;12.55;;
9675;SDS011;4876;42.656;23.292;2024-01-06T14:29:01;31.23;;;12.32;;
9675;SDS011;4876;42.656;23.292;2024-01-06T14:31:26;34.42;;;13.35;;
9675;SDS011;4876;42.656;23.292;2024-01-06T14:33:52;41.88;;;13.43;;
9675;SDS011;4876;42.656;23.292;2024-01-06T14:36:18;30.45;;;12.77;;
9675;SDS011;4876;42.656;23.292;2024-01-06T14:38:43;26.10;;;11.35;;
9675;SDS011;4876;42.656;23.292;2024-01-06T14:41:09;24.13;;;10.38;;
9675;SDS011;4876;42.656;23.292;2024-01-06T14:43:35;25.70;;;10.98;;
9675;SDS011;4876;42.656;23.292;2024-01-06T14:46:00;24.50;;;10.40;;
9675;SDS011;4876;42.656;23.292;2024-01-06T14:48:26;26.92;;;10.15;;